• Join FlightAware (Why Join?)
  • Login
  • US Flag 
02:01PM EST


 

Airport Tracker/Info


-or-


 

Live Flight TrackerFlight Track Log ✈ ACA7033 ✈ 14-Dec-2013 ✈ KPHX - KRDU

Flight Track Log - Related Links

Times and Time Zones

All times are in EST time to prevent confusion due to time zone crossing. See the ACA7033 flight status page for this flight to view local times or setup timezone preferences in your user account.

Time Position Orientation Groundspeed Altitude Reporting Facility
EST Latitude Longitude Course Direction KTS MPH feet Rate Location/Type
12:17AM 33.4333 -111.9833 90° East 153 176 2,200  Level Phoenix TRACON
12:18AM 33.4333 -111.9167 90° East 206 237 4,500 2,040 Climbing Phoenix TRACON
12:19AM 33.4500 -111.8500 73° East 259 298 6,300 2,400 Climbing Phoenix TRACON
12:20AM 33.4669 -111.8100 63° Northeast 269 310 8,300 2,640 Climbing Albuquerque Center
12:21AM 33.5053 -111.7369 58° Northeast 263 303 10,800 2,100 Climbing Albuquerque Center
12:22AM 33.5464 -111.6450 62° Northeast 318 366 12,600 2,100 Climbing Albuquerque Center
12:23AM 33.5844 -111.5450 65° Northeast 331 381 15,000 2,340 Climbing Albuquerque Center
12:24AM 33.6244 -111.4400 65° Northeast 345 397 17,400 2,160 Climbing Albuquerque Center
12:25AM 33.6719 -111.3106 66° East 355 409 19,400 1,980 Climbing Albuquerque Center
12:26AM 33.7136 -111.1950 67° East 375 432 21,400 1,800 Climbing Albuquerque Center
12:27AM 33.7542 -111.0775 67° East 383 441 23,100 1,620 Climbing Albuquerque Center
12:28AM 33.7967 -110.9556 67° East 394 453 24,700 1,440 Climbing Albuquerque Center
12:29AM 33.8400 -110.8317 67° East 401 461 26,100 1,320 Climbing Albuquerque Center
12:30AM 33.8850 -110.7058 67° East 407 468 27,400 1,140 Climbing Albuquerque Center
12:31AM 33.9311 -110.5756 67° East 419 482 28,500 960 Climbing Albuquerque Center
12:32AM 33.9772 -110.4442 67° East 425 489 29,400 900 Climbing Albuquerque Center
12:33AM 34.0222 -110.3167 67° East 432 497 30,300 1,140 Climbing Albuquerque Center
12:34AM 34.0689 -110.1822 67° East 434 499 31,700 1,260 Climbing Albuquerque Center
12:35AM 34.1144 -110.0500 67° East 429 494 32,900 1,080 Climbing Albuquerque Center
12:36AM 34.1644 -109.9031 68° East 425 489 33,900 660 Climbing Albuquerque Center
12:37AM 34.2083 -109.7775 67° East 424 488 34,300 480 Climbing Albuquerque Center
12:38AM 34.2528 -109.6478 67° East 432 497 34,900 300 Climbing Albuquerque Center
12:39AM 34.3047 -109.4942 68° East 439 505 35,000  Climbing Albuquerque Center
12:40AM 34.3497 -109.3617 68° East 443 510 35,000  Level Albuquerque Center
12:41AM 34.3953 -109.2297 67° East 445 512 35,000  Level Albuquerque Center
12:42AM 34.4450 -109.0775 68° East 440 506 35,000  Level Albuquerque Center
12:43AM 34.4800 -108.9431 72° East 437 503 35,000  Level Albuquerque Center
12:44AM 34.5175 -108.8092 71° East 438 504 35,000  Level Albuquerque Center
12:45AM 34.5542 -108.6756 72° East 438 504 35,000  Level Albuquerque Center
12:46AM 34.5969 -108.5186 72° East 439 505 35,000  Level Albuquerque Center
12:47AM 34.6347 -108.3819 71° East 442 509 35,000  Level Albuquerque Center
12:48AM 34.6719 -108.2450 72° East 445 512 35,100  Climbing Albuquerque Center
12:49AM 34.7086 -108.1089 72° East 444 511 35,000 -60 Descending Albuquerque Center
12:50AM 34.7461 -107.9678 72° East 442 509 35,000  Level Albuquerque Center
12:51AM 34.7831 -107.8286 72° East 436 502 35,000  Level Albuquerque Center
12:52AM 34.8200 -107.6889 72° East 434 499 35,000  Level Albuquerque Center
12:53AM 34.8575 -107.5475 72° East 438 504 35,000  Level Albuquerque Center
12:54AM 34.8997 -107.3867 72° East 437 503 35,000  Level Albuquerque Center
12:55AM 34.9361 -107.2456 73° East 439 505 35,100  Climbing Albuquerque Center
12:56AM 34.9719 -107.1053 73° East 434 499 35,100 -60 Level Albuquerque Center
12:57AM 34.9892 -106.9622 82° East 430 495 35,000 -120 Descending Albuquerque Center
12:58AM 34.9953 -106.8217 87° East 425 489 34,900  Descending Albuquerque Center
12:59AM 35.0008 -106.6814 87° East 418 481 35,000  Climbing Albuquerque Center
01:00AM 35.0058 -106.5392 88° East 419 482 35,000 -60 Level Albuquerque Center
01:01AM 35.0111 -106.3606 88° East 431 496 34,900  Descending Albuquerque Center
01:02AM 35.0153 -106.2094 88° East 440 506 35,000  Climbing Albuquerque Center
01:03AM 35.0203 -106.0583 88° East 447 514 35,000  Level Albuquerque Center
01:04AM 35.0239 -105.9089 88° East 445 512 35,000  Level Albuquerque Center
01:05AM 35.0275 -105.7614 88° East 438 504 35,000 -60 Level Albuquerque Center
01:06AM 35.0319 -105.6156 88° East 437 503 34,900  Descending Albuquerque Center
01:07AM 35.0353 -105.4631 88° East 437 503 35,000  Climbing Albuquerque Center
01:08AM 35.0392 -105.3136 88° East 438 504 35,000  Level Albuquerque Center
01:09AM 35.0436 -105.1611 88° East 444 511 35,000  Level Albuquerque Center
01:10AM 35.0481 -105.0081 88° East 447 514 35,000  Level Albuquerque Center
01:11AM 35.0519 -104.8569 88° East 445 512 35,000  Level Albuquerque Center
01:12AM 35.0550 -104.7047 89° East 445 512 35,000  Level Albuquerque Center
01:13AM 35.0583 -104.5531 88° East 446 513 35,000  Level Albuquerque Center
01:14AM 35.0625 -104.4022 88° East 445 512 35,000  Level Albuquerque Center
01:15AM 35.0644 -104.2533 89° East 444 511 35,000  Level Albuquerque Center
01:16AM 35.0681 -104.1033 88° East 446 513 35,000 -60 Level Albuquerque Center
01:17AM 35.0706 -103.9617 89° East 448 516 34,900  Descending Albuquerque Center
01:18AM 35.0725 -103.8033 89° East 441 507 35,000  Climbing Albuquerque Center
01:19AM 35.0736 -103.6514 89° East 443 510 35,000  Level Albuquerque Center
01:20AM 35.0753 -103.4997 89° East 444 511 35,000  Level Albuquerque Center
01:21AM 35.0772 -103.3469 89° East 446 513 35,000  Level Albuquerque Center
01:22AM 35.0794 -103.1942 89° East 447 514 35,000  Level Albuquerque Center
01:23AM 35.0794 -103.0408 90° East 449 517 35,000  Level Albuquerque Center
01:24AM 35.0800 -102.8978 90° East 448 516 35,000  Level Albuquerque Center
01:25AM 35.0819 -102.7469 89° East 447 514 35,000  Level Albuquerque Center
01:26AM 35.0831 -102.5978 89° East 443 510 35,000  Level Albuquerque Center
01:27AM 35.0828 -102.4483 90° East 442 509 35,000  Level Albuquerque Center
01:28AM 35.0828 -102.2994 90° East 440 506 35,000  Level Albuquerque Center
01:29AM 35.0828 -102.1506 90° East 441 507 35,000  Level Albuquerque Center
01:30AM 35.0836 -101.9789 90° East 444 511 35,000 -240 Level Albuquerque Center
01:31AM 35.0847 -101.8247 89° East 449 517 34,600 -720 Descending Albuquerque Center
01:32AM 35.0850 -101.6717 90° East 449 517 33,600 -840 Descending Albuquerque Center
01:33AM 35.0839 -101.5236 90° East 447 514 33,000 -360 Descending Albuquerque Center
01:34AM 35.0825 -101.3719 91° East 446 513 32,900 -540 Descending Albuquerque Center
01:35AM 35.0817 -101.2231 90° East 446 513 32,000 -900 Descending Albuquerque Center
01:36AM 35.0808 -101.0758 90° East 440 506 31,100 -540 Descending Albuquerque Center
01:37AM 35.0806 -100.9272 90° East 439 505 31,000 -60 Descending Albuquerque Center
01:38AM 35.0786 -100.7769 91° East 443 510 31,000  Level Albuquerque Center
01:39AM 35.0769 -100.6275 91° East 442 509 31,000  Level Albuquerque Center
01:40AM 35.0750 -100.4783 91° East 442 509 31,000  Level Albuquerque Center
01:41AM 35.0717 -100.3228 91° East 440 506 31,000  Level Albuquerque Center
01:42AM 35.0694 -100.1733 91° East 440 506 31,000  Level Albuquerque Center
01:43AM 35.0667 -100.0231 91° East 442 509 31,000  Level Albuquerque Center
01:44AM 35.0647 -99.8714 91° East 445 512 31,000  Level Albuquerque Center
01:45AM 35.0614 -99.7178 91° East 450 518 31,000  Level Albuquerque Center
01:46AM 35.0583 -99.5644 91° East 452 520 31,000  Level Albuquerque Center
01:47AM 35.0558 -99.4739 92° East 452 520 31,000  Level Fort Worth Center
01:48AM 35.0531 -99.3206 91° East 453 521 31,000  Level Fort Worth Center
01:49AM 35.0483 -99.1656 92° East 458 527 31,000  Level Fort Worth Center
01:50AM 35.0444 -99.0117 92° East 455 524 31,000  Level Fort Worth Center
01:51AM 35.0411 -98.8592 91° East 452 520 31,000  Level Fort Worth Center
01:52AM 35.0367 -98.7056 92° East 452 520 31,000  Level Fort Worth Center
01:53AM 35.0325 -98.5519 92° East 454 522 31,000  Level Fort Worth Center
01:54AM 35.0281 -98.3722 92° East 453 521 31,000  Level Fort Worth Center
01:55AM 35.0231 -98.2181 92° East 457 526 31,000  Level Fort Worth Center
01:56AM 35.0178 -98.0614 92° East 462 532 31,000  Level Fort Worth Center
01:57AM 35.0122 -97.9058 92° East 462 532 31,000  Level Fort Worth Center
01:58AM 35.0072 -97.7511 92° East 461 531 31,000  Level Fort Worth Center
01:59AM 35.0008 -97.5911 93° East 473 544 31,000  Level Fort Worth Center
02:00AM 34.9936 -97.4272 93° East 488 562 31,000  Level Fort Worth Center
02:01AM 34.9864 -97.2608 93° East 496 571 31,000  Level Fort Worth Center
02:02AM 34.9786 -97.0939 93° East 499 574 31,000  Level Fort Worth Center
02:03AM 34.9719 -96.9239 93° East 503 579 31,000  Level Fort Worth Center
02:04AM 34.9644 -96.7525 93° East 509 586 31,000  Level Fort Worth Center
02:05AM 34.9569 -96.5808 93° East 510 587 31,000  Level Fort Worth Center
02:06AM 34.9494 -96.4089 93° East 511 588 31,000 600 Level Fort Worth Center
02:07AM 34.9417 -96.2383 93° East 508 585 32,200 1,440 Climbing Fort Worth Center
02:08AM 34.9342 -96.0744 93° East 493 567 33,900 1,140 Climbing Fort Worth Center
02:09AM 34.9261 -95.9092 93° East 488 562 34,500 540 Climbing Fort Worth Center
02:10AM 34.9186 -95.7494 93° East 495 570 35,000 240 Climbing Fort Worth Center
02:11AM 34.9106 -95.5872 93° East 485 558 35,000  Level Fort Worth Center
02:12AM 34.9008 -95.4231 94° East 485 558 35,000  Level Fort Worth Center
02:13AM 34.8919 -95.2608 94° East 483 556 35,000  Level Fort Worth Center
02:14AM 34.8828 -95.0969 94° East 486 559 35,000  Level Fort Worth Center
02:15AM 34.8708 -94.9089 94° East 485 558 35,000  Level Fort Worth Center
02:16AM 34.8611 -94.7447 94° East 486 559 35,000  Level Fort Worth Center
02:17AM 34.8531 -94.6203 94° East 487 560 35,000  Level Memphis Center
02:18AM 34.8436 -94.4564 94° East 488 562 35,000  Level Memphis Center
02:19AM 34.8331 -94.2914 94° East 490 564 35,000  Level Memphis Center
02:20AM 34.8233 -94.1264 94° East 491 565 35,000  Level Memphis Center
02:21AM 34.8128 -93.9600 94° East 494 568 35,000  Level Memphis Center
02:22AM 34.8008 -93.7939 95° East 495 570 35,000  Level Memphis Center
02:23AM 34.7897 -93.6283 95° East 495 570 35,100  Climbing Memphis Center
02:24AM 34.7781 -93.4622 95° East 496 571 35,000 -60 Descending Memphis Center
02:25AM 34.7653 -93.2978 95° East 495 570 35,000  Level Memphis Center
02:26AM 34.7519 -93.1356 96° East 491 565 35,000 -60 Level Memphis Center
02:27AM 34.7392 -92.9739 95° East 487 560 34,900  Descending Memphis Center
02:28AM 34.7264 -92.8125 95° East 485 558 35,000  Climbing Memphis Center
02:29AM 34.7131 -92.6497 96° East 487 560 35,000  Level Memphis Center
02:30AM 34.7008 -92.4842 95° East 493 567 35,000  Level Memphis Center
02:31AM 34.6867 -92.3172 96° East 497 572 35,000  Level Memphis Center
02:32AM 34.6833 -92.1472 91° East 506 582 35,000  Level Memphis Center
02:33AM 34.7078 -91.9778 80° East 510 587 35,000  Level Memphis Center
02:34AM 34.7369 -91.8081 78° East 514 592 35,100  Climbing Memphis Center
02:35AM 34.7653 -91.6322 79° East 513 590 35,000 -60 Descending Memphis Center
02:36AM 34.7928 -91.4606 79° East 513 590 35,000  Level Memphis Center
02:37AM 34.8203 -91.2886 79° East 513 590 35,000  Level Memphis Center
02:38AM 34.8456 -91.1169 80° East 511 588 35,000  Level Memphis Center
02:39AM 34.8728 -90.9456 79° East 513 590 35,000  Level Memphis Center
02:40AM 34.8981 -90.7733 80° East 511 588 35,000  Level Memphis Center
02:41AM 34.9242 -90.5994 80° East 514 592 35,000  Level Memphis Center
02:42AM 34.9494 -90.4239 80° East 518 596 35,000  Level Memphis Center
02:43AM 34.9761 -90.2492 79° East 519 597 35,000  Level Memphis Center
02:44AM 34.9981 -90.1022 80° East 521 600 35,000  Level Memphis Center
02:45AM 35.0183 -89.9231 82° East 522 601 35,000  Level Memphis Center
02:46AM 35.0158 -89.7392 91° East 525 604 35,000  Level Memphis Center
02:47AM 35.0167 -89.5569 90° East 524 603 35,000  Level Memphis Center
02:48AM 35.0175 -89.3756 90° East 525 604 35,000  Level Memphis Center
02:49AM 35.0183 -89.1958 90° East 525 604 35,000  Level Memphis Center
02:50AM 35.0194 -89.0161 90° East 524 603 35,000  Level Memphis Center
02:51AM 35.0197 -88.8372 90° East 523 602 35,000  Level Memphis Center
02:52AM 35.0192 -88.6586 90° East 522 601 35,000  Level Memphis Center
02:53AM 35.0181 -88.4817 90° East 519 597 35,000  Level Memphis Center
02:54AM 35.0178 -88.3125 90° East 521 600 35,000  Level Memphis Center
02:55AM 35.0172 -88.1356 90° East 521 600 35,000  Level Memphis Center
02:56AM 35.0161 -87.9586 90° East 521 600 35,000  Level Memphis Center
02:57AM 35.0139 -87.7792 91° East 525 604 35,000  Level Memphis Center
02:58AM 35.0122 -87.5986 91° East 528 608 35,000  Level Memphis Center
02:59AM 35.0108 -87.4161 90° East 533 613 35,000  Level Memphis Center
03:00AM 35.0081 -87.2317 91° East 538 619 35,000  Level Memphis Center
03:01AM 35.0056 -87.0447 91° East 544 626 35,100  Climbing Memphis Center
03:02AM 35.0025 -86.8589 91° East 547 629 35,100 -60 Level Memphis Center
03:03AM 34.9997 -86.6731 91° East 547 629 35,000 -60 Descending Memphis Center
03:04AM 34.9956 -86.4892 92° East 545 627 35,000  Level Memphis Center
03:05AM 34.9953 -86.3639 90° East 536 617 35,000  Level Atlanta Center
03:06AM 34.9903 -86.1811 92° East 536 617 35,000  Level Atlanta Center
03:07AM 34.9850 -85.9983 92° East 536 617 35,000  Level Atlanta Center
03:08AM 34.9794 -85.8108 92° East 536 617 35,000  Level Atlanta Center
03:09AM 34.9758 -85.6256 91° East 541 623 35,000  Level Atlanta Center
03:10AM 34.9697 -85.4378 92° East 546 628 35,000  Level Atlanta Center
03:11AM 34.9653 -85.2528 92° East 546 628 35,000  Level Atlanta Center
03:12AM 34.9628 -85.0653 91° East 546 628 35,000  Level Atlanta Center
03:13AM 34.9706 -84.8778 87° East 552 635 35,000  Level Atlanta Center
03:14AM 34.9739 -84.6903 89° East 552 635 35,000  Level Atlanta Center
03:15AM 34.9808 -84.4975 87° East 557 641 35,000  Level Atlanta Center
03:16AM 34.9897 -84.3075 87° East 557 641 35,000  Level Atlanta Center
03:17AM 35.0233 -84.1200 78° East 557 641 35,000  Level Atlanta Center
03:18AM 35.0547 -83.9297 79° East 563 648 35,000  Level Atlanta Center
03:19AM 35.0900 -83.7442 77° East 563 648 35,000 -60 Level Atlanta Center
03:20AM 35.1228 -83.5589 78° East 563 648 34,900  Descending Atlanta Center
03:21AM 35.1511 -83.3936 78° East 558 642 35,000  Climbing Atlanta Center
03:22AM 35.1856 -83.2028 77° East 563 648 35,000  Level Atlanta Center
03:23AM 35.2214 -82.9861 78° East 576 663 35,000  Level Atlanta Center
03:24AM 35.2511 -82.8206 78° East 570 656 35,000  Level Atlanta Center
03:25AM 35.2844 -82.6317 78° East 565 650 35,000  Level Atlanta Center
03:26AM 35.3178 -82.4403 78° East 565 650 35,000  Level Atlanta Center
03:27AM 35.3506 -82.2486 78° East 565 650 35,000  Level Atlanta Center
03:28AM 35.3789 -82.0569 80° East 565 650 35,000  Level Atlanta Center
03:29AM 35.4131 -81.8625 78° East 570 656 35,000  Level Atlanta Center
03:30AM 35.4467 -81.6500 79° East 570 656 35,000 -60 Level Atlanta Center
03:31AM 35.4764 -81.4606 79° East 570 656 34,900 -540 Descending Atlanta Center
03:32AM 35.5056 -81.2656 80° East 570 656 34,000 -1,080 Descending Atlanta Center
03:33AM 35.5361 -81.0656 79° East 576 663 32,800 -1,620 Descending Atlanta Center
03:34AM 35.5669 -80.8806 78° East 576 663 30,800 -1,980 Descending Atlanta Center
03:35AM 35.5956 -80.6983 79° East 563 648 28,900 -1,740 Descending Atlanta Center
03:36AM 35.6147 -80.5569 80° East 545 627 27,400 -1,860 Descending Atlanta Center
03:37AM 35.6442 -80.3539 80° East 516 594 25,200 -2,160 Descending Atlanta Center
03:38AM 35.6706 -80.1917 79° East 500 575 23,100 -1,920 Descending Atlanta Center
03:39AM 35.6944 -80.0294 80° East 486 559 21,400 -1,800 Descending Atlanta Center
03:40AM 35.7167 -79.8775 80° East 471 542 19,500 -1,800 Descending Atlanta Center
03:41AM 35.7386 -79.7331 79° East 446 513 17,800 -1,680 Descending Atlanta Center
03:41AM 35.7606 -79.6236 76° East 416 479 16,400 -1,680 Descending Washington Center
03:42AM 35.7611 -79.6083 87° East 433 498 16,200 -1,740 Descending Washington Center
03:42AM 35.7775 -79.4886 80° East 402 463 14,800 -1,740 Descending Washington Center
03:43AM 35.7781 -79.4708 88° East 405 466 14,500 -1,680 Descending Washington Center
03:43AM 35.7944 -79.3564 80° East 394 453 13,100 -1,680 Descending Washington Center
03:44AM 35.7969 -79.3361 81° East 405 466 12,900 -1,560 Descending Washington Center
03:44AM 35.8108 -79.2239 81° East 386 444 11,500 -1,800 Descending Washington Center
03:45AM 35.8156 -79.2064 72° East 393 452 11,100 -1,560 Descending Washington Center
03:45AM 35.8397 -79.0997 74° East 377 434 10,000 -1,140 Descending Washington Center
03:46AM 35.8442 -79.0872 66° East 375 432 10,000 -1,680 Level Washington Center
03:46AM 35.8869 -78.9786 64° Northeast 363 418 8,300 -1,680 Descending Washington Center
03:47AM 35.8892 -78.9764 39° Northeast 365 420 8,400 -1,320 Climbing Washington Center
03:47AM 35.9275 -78.8728 65° Northeast 337 388 7,000 -1,440 Descending Washington Center
03:48AM 35.9297 -78.8703 42° Northeast 351 404 7,000 -1,800 Level Washington Center
03:48AM 35.9839 -78.7931 49° Northeast 295 339 5,200 -1,680 Descending Washington Center
03:49AM 35.9842 -78.7878 86° East 327 376 5,300 -1,320 Climbing Washington Center
03:49AM 36.0422 -78.7208 43° Northeast 294 338 3,900 -1,080 Descending Washington Center
03:51AM 36.0817 -78.6478 56° Northeast 258 297 3,200 -420 Descending Washington Center
03:52AM 36.0364 -78.6178 152° Southeast 193 222 3,100 -60 Descending Washington Center
03:53AM 35.9958 -78.6522 214° Southwest 174 200 3,100 -300 Level Washington Center
03:54AM 35.9636 -78.6894 223° Southwest 149 171 2,500 -660 Descending Washington Center
03:55AM 35.9397 -78.7244 230° Southwest 129 148 1,800 -720 Descending Washington Center
03:56AM 35.9097 -78.7567 221° Southwest 128 147 1,100 -720 Descending Washington Center